MMDO

Details ICAO MMDO (DGO)
Name DURANGO INTL
Region Mexico
Timezone America/Monterrey (UTC-6.0)
Plans Departing 20
Arriving 17
Stats Elevation 6,104 ft / 1,860 m (AMSL)
Location 24.124193° -104.528013°
Runways 1
Magnetic Variation 6.805° E
Sunrise 2017-12-16 13:35:46 UTC / 2017-12-16 07:35:46 Local
Sunset 2017-12-17 00:14:45 UTC / 2017-12-16 18:14:45 Local
Advertisement - Login to hide

Runways

ID Width Length Bearing (true) Bearing (mag) Surface Threshold Offset Overrun Length
03 148 ft / 45 m 9,552 ft / 2,911 m 38.10° 31.30° Asphalt 0 ft / 0 m 197 ft / 60 m
21 148 ft / 45 m 9,552 ft / 2,911 m 218.10° 211.30° Asphalt 0 ft / 0 m 197 ft / 60 m

Map

Weather


0- 5 10 15 20 25 30 35+ Temperature / ° C

Clouds and Precipitation
Forecast for 2017-12-17 00:00 UTC. Updated 2 hours ago

Ground ~20,000 ft ~40,000 ft Winds

METAR

MMDO 161945Z 24014KT 12SM FEW015 15/M04 A3007 RMK 8/100 ISOL CI

TAF

TAF AMD MMDO 161125Z 1611/1706 00000KT 0SM FG VV000 BECMG 1614/1615 1SM -RA BR BKN007 OVC012 FM161800 24008KT P6SM SCT025 BKN080 BECMG 1703/1705 08004KT

Frequencies

Recorded 132.10 MHz ATIS
Tower 118.10 MHz TWR
Warning: Do not use this data for real-world aviation or navigation. No guarantee of current accuracy is given.